Flight Track Log - Related Links

Times and Time Zones

All times are in EST time to prevent confusion due to time zone crossing. See the N521PM flight status page for this flight to view local times or setup timezone preferences in your user account.

Time Position Orientation Groundspeed Altitude Reporting Facility
EST Latitude Longitude Course Direction KTS MPH feet Rate Location/Type
Tue 06:51:19 PM 39.5775 -88.1056 49° Northeast 178 205 8,000  Level Indianapolis Center
Tue 06:52:21 PM 39.6236 -88.0444 46° Northeast 196 226 9,100 581 Climbing Indianapolis Center
Tue 06:53:23 PM 39.6686 -87.9861 45° Northeast 220 253 9,200 48 Climbing Indianapolis Center
Tue 06:54:00 PM 39.8978 -87.6837 52° Northeast  Level Estimated
Tue 06:54:25 PM 39.7111 -87.9261 47° Northeast 227 261 9,200  Level Indianapolis Center
Tue 06:55:00 PM 39.9389 -87.6229 49° Northeast  Level FlightAware Approximate
Tue 06:55:27 PM 39.7533 -87.8697 46° Northeast 220 253 9,100  Level Indianapolis Center
Tue 06:56:00 PM 39.9808 -87.5629 49° Northeast  Level Estimated
Tue 06:56:29 PM 39.7908 -87.8169 47° Northeast 206 237 9,100  Level Indianapolis Center
Tue 06:57:31 PM 39.8297 -87.7633 47° Northeast 204 235 9,200  Climbing Indianapolis Center
Tue 06:58:33 PM 39.8733 -87.7033 47° Northeast 195 224 9,100 -48 Descending Indianapolis Center
Tue 06:59:35 PM 39.9092 -87.6517 48° Northeast 192 221 9,100  Level Indianapolis Center
Tue 07:00:37 PM 39.9439 -87.6031 47° Northeast 187 215 9,100 48 Level Indianapolis Center
Tue 07:01:39 PM 39.9783 -87.5547 47° Northeast 185 213 9,200 -48 Climbing Indianapolis Center
Tue 07:02:41 PM 40.0122 -87.5069 47° Northeast 182 209 9,000 -435 Descending Indianapolis Center
Tue 07:03:43 PM 40.0483 -87.4567 47° Northeast 184 212 8,300 -732 Descending Indianapolis Center
Tue 07:04:44 PM 40.0914 -87.3953 47° Northeast 191 220 7,500 -732 Descending Indianapolis Center
Tue 07:05:46 PM 40.1264 -87.3467 47° Northeast 187 215 6,800 -629 Descending Indianapolis Center
Tue 07:06:48 PM 40.1597 -87.2978 48° Northeast 183 211 6,200 -387 Descending Indianapolis Center
Tue 07:07:50 PM 40.1936 -87.2514 46° Northeast 181 208 6,000 -51 Descending Indianapolis Center
Tue 07:08:46 PM 40.2244 -87.2069 48° Northeast 175 201 6,100 102 Climbing Chicago Center
Tue 07:09:48 PM 40.2569 -87.1583 49° Northeast 173 199 6,200 76 Climbing Chicago Center
Tue 07:10:05 PM 40.2692 -87.1419 46° Northeast 182 209 6,200 -97 Level Chicago Center
Tue 07:10:50 PM 40.2919 -87.1106 46° Northeast 177 204 6,100 -98 Descending Chicago Center
Tue 07:11:06 PM 40.3022 -87.0953 49° Northeast 186 214 6,100 -484 Level Chicago Center
Tue 07:11:52 PM 40.3369 -87.0842 14° North 187 215 5,600 -667 Descending Chicago Center
Tue 07:12:00 PM 40.3481 -87.0983 316° Northwest 210 242 5,500 -581 Descending Chicago Center
Tue 07:12:54 PM 40.3644 -87.1367 299° West 182 209 5,000 -689 Descending Chicago Center
Tue 07:13:01 PM 40.3644 -87.1567 270° West 182 209 4,800 -985 Descending Chicago Center
Tue 07:14:01 PM 40.3911 -87.2186 299° West 198 228 3,900 -667 Descending Chicago Center
Tue 07:14:58 PM 40.4308 -87.2264 352° North 199 229 3,500 -689 Descending Chicago Center
Tue 07:15:02 PM 40.4489 -87.2336 343° North 211 243 3,200 -387 Descending Chicago Center
Tue 07:16:00 PM 40.4917 -87.2186 15° North 230 265 3,100  Descending Chicago Center
Tue 07:16:02 PM 40.4917 -87.2122 90° East 189 217 3,200  Climbing Chicago Center
Tue 07:17:02 PM 40.4811 -87.1742 110° East 203 234 3,100  Descending Chicago Center
Tue 07:17:03 PM 40.4664 -87.1694 166° South 135 155 3,200 107 Climbing Chicago Center
Tue 07:17:58 PM 40.4444 -87.1378 132° Southeast 134 154 3,200 -165 Level Chicago Center
Tue 07:18:52 PM 40.4317 -87.0931 111° Southeast 157 181 2,900 -333 Descending Chicago Center

Login

Don't have an account? Register now (free) for customized features, flight alerts, and more!